createdAt,value
2024-05-09T00:01:29.003Z,8.40
2024-05-09T00:04:04.919Z,10.60
2024-05-09T00:06:37.436Z,9.80
2024-05-09T00:09:09.669Z,10.70
2024-05-09T00:11:42.098Z,10.80
2024-05-09T00:14:14.796Z,8.40
2024-05-09T00:16:48.534Z,8.90
2024-05-09T00:19:22.273Z,9.30
2024-05-09T00:21:54.749Z,8.20
2024-05-09T00:24:27.313Z,7.80
2024-05-09T00:27:01.214Z,8.80
2024-05-09T00:29:36.301Z,9.50
2024-05-09T00:32:10.060Z,10.00
2024-05-09T00:34:42.527Z,9.80
2024-05-09T00:37:14.906Z,7.80
2024-05-09T00:39:47.593Z,7.80
2024-05-09T00:42:20.019Z,9.10
2024-05-09T00:44:52.409Z,7.70
2024-05-09T00:47:25.091Z,8.40
2024-05-09T00:49:58.224Z,9.10
2024-05-09T00:52:36.524Z,10.00
2024-05-09T00:55:10.272Z,9.10
2024-05-09T00:57:42.750Z,9.50
2024-05-09T01:00:26.063Z,9.50
2024-05-09T01:03:04.241Z,8.20
2024-05-09T01:05:39.192Z,10.90
2024-05-09T01:08:12.531Z,10.70
2024-05-09T01:10:47.899Z,11.10
2024-05-09T01:13:21.506Z,9.40
2024-05-09T01:15:54.212Z,9.10
2024-05-09T01:18:26.751Z,9.80
2024-05-09T01:20:59.084Z,8.10
2024-05-09T01:23:34.653Z,12.00
2024-05-09T01:26:07.514Z,10.40
2024-05-09T01:28:39.825Z,7.70
2024-05-09T01:31:15.915Z,9.40
2024-05-09T01:33:48.371Z,8.60
2024-05-09T01:36:20.969Z,9.10
2024-05-09T01:38:53.743Z,9.80
2024-05-09T01:41:26.130Z,10.50
2024-05-09T01:43:58.744Z,9.40
2024-05-09T01:46:32.868Z,9.90
2024-05-09T01:49:05.476Z,8.90
2024-05-09T01:51:37.895Z,9.80
2024-05-09T01:54:10.096Z,10.20
2024-05-09T01:56:42.525Z,11.40
2024-05-09T01:59:15.072Z,9.50
2024-05-09T02:01:56.581Z,9.40
2024-05-09T02:04:32.013Z,10.80
2024-05-09T02:07:05.924Z,9.80
2024-05-09T02:09:38.117Z,8.80
2024-05-09T02:12:10.949Z,9.30
2024-05-09T02:14:43.474Z,11.50
2024-05-09T02:17:16.384Z,9.40
2024-05-09T02:19:48.990Z,10.10
2024-05-09T02:22:21.605Z,11.30
2024-05-09T02:24:54.189Z,10.50
2024-05-09T02:27:26.967Z,9.90
2024-05-09T02:30:01.204Z,8.80
2024-05-09T02:32:35.835Z,11.00
2024-05-09T02:35:09.574Z,9.60
2024-05-09T02:37:42.283Z,8.70
2024-05-09T02:40:18.151Z,10.20
2024-05-09T02:42:54.110Z,10.50
2024-05-09T02:45:26.366Z,9.80
2024-05-09T02:47:59.135Z,10.80
2024-05-09T02:50:38.536Z,12.00
2024-05-09T02:53:12.725Z,9.80
2024-05-09T02:55:45.217Z,9.60
2024-05-09T02:58:17.554Z,10.70
2024-05-09T03:00:50.063Z,9.80
2024-05-09T03:03:22.712Z,9.60
2024-05-09T03:05:55.599Z,9.60
2024-05-09T03:08:28.088Z,9.00
2024-05-09T03:11:02.770Z,10.00
2024-05-09T03:13:39.700Z,10.40
2024-05-09T03:16:12.343Z,11.80
2024-05-09T03:18:45.181Z,10.00
2024-05-09T03:21:17.511Z,9.50
2024-05-09T03:23:50.134Z,10.40
2024-05-09T03:26:22.736Z,10.90
2024-05-09T03:28:55.510Z,11.80
2024-05-09T03:31:28.136Z,9.50
2024-05-09T03:34:02.905Z,11.00
2024-05-09T03:36:35.711Z,10.00
2024-05-09T03:39:08.380Z,9.90
2024-05-09T03:41:41.017Z,8.90
2024-05-09T03:44:13.646Z,10.60
2024-05-09T03:46:46.105Z,9.80
2024-05-09T03:49:18.871Z,9.40
2024-05-09T03:51:51.389Z,12.40
2024-05-09T03:54:24.768Z,11.60
2024-05-09T03:56:57.498Z,10.60
2024-05-09T03:59:31.867Z,10.40
2024-05-09T04:02:06.745Z,11.10
2024-05-09T04:04:41.941Z,9.90
2024-05-09T04:07:14.292Z,10.60
2024-05-09T04:09:46.738Z,11.80
2024-05-09T04:12:19.216Z,11.80
2024-05-09T04:14:53.138Z,10.70
2024-05-09T04:17:25.971Z,10.60
2024-05-09T04:19:58.805Z,11.10
2024-05-09T04:22:36.466Z,10.10
2024-05-09T04:25:09.748Z,9.70
2024-05-09T04:27:42.210Z,10.80
2024-05-09T04:30:21.783Z,10.50
2024-05-09T04:33:03.949Z,10.10
2024-05-09T04:35:36.457Z,9.30
2024-05-09T04:38:09.731Z,12.40
2024-05-09T04:40:42.227Z,10.10
2024-05-09T04:43:22.979Z,11.20
2024-05-09T04:45:56.332Z,10.20
2024-05-09T04:48:38.018Z,10.00
2024-05-09T04:51:10.954Z,10.10
2024-05-09T04:53:43.635Z,10.70
2024-05-09T04:56:16.186Z,10.10
2024-05-09T04:58:49.735Z,9.30
2024-05-09T05:01:22.179Z,9.30
2024-05-09T05:03:56.154Z,10.40
2024-05-09T05:06:30.633Z,11.00
2024-05-09T05:09:03.324Z,11.80
2024-05-09T05:11:35.590Z,10.50
2024-05-09T05:14:09.247Z,11.00
2024-05-09T05:16:41.729Z,10.00
2024-05-09T05:19:16.975Z,10.60
2024-05-09T05:21:50.069Z,10.00
2024-05-09T05:24:22.523Z,9.20
2024-05-09T05:26:54.897Z,14.00
2024-05-09T05:29:27.694Z,9.70
2024-05-09T05:32:02.292Z,12.20
2024-05-09T05:34:35.604Z,10.60
2024-05-09T05:37:08.378Z,10.40
2024-05-09T05:39:40.854Z,10.40
2024-05-09T05:42:25.777Z,9.60
2024-05-09T05:44:58.046Z,9.40
2024-05-09T05:47:32.984Z,10.80
2024-05-09T05:50:14.482Z,10.40
2024-05-09T05:52:52.945Z,10.70
2024-05-09T05:55:25.669Z,9.30
2024-05-09T05:57:58.283Z,9.00
2024-05-09T06:00:38.684Z,10.10
2024-05-09T06:03:18.608Z,10.30
2024-05-09T06:05:51.539Z,10.60
2024-05-09T06:08:25.175Z,8.70
2024-05-09T06:11:01.565Z,11.00
2024-05-09T06:13:35.831Z,10.80
2024-05-09T06:16:09.218Z,9.20
2024-05-09T06:18:41.706Z,9.80
2024-05-09T06:21:14.604Z,10.30
2024-05-09T06:23:49.482Z,10.50
2024-05-09T06:26:21.838Z,10.10
2024-05-09T06:28:57.889Z,11.10
2024-05-09T06:31:32.605Z,9.50
2024-05-09T06:34:05.831Z,13.50
2024-05-09T06:36:39.484Z,9.20
2024-05-09T06:39:11.992Z,11.10
2024-05-09T06:41:44.312Z,11.60
2024-05-09T06:44:17.047Z,9.90
2024-05-09T06:46:50.117Z,12.30
2024-05-09T06:49:23.034Z,10.70
2024-05-09T06:51:55.238Z,10.20
2024-05-09T06:54:27.714Z,10.80
2024-05-09T06:57:02.812Z,10.40
2024-05-09T06:59:38.274Z,10.10
2024-05-09T07:02:10.859Z,9.60
2024-05-09T07:04:43.460Z,12.00
2024-05-09T07:07:16.945Z,11.90
2024-05-09T07:09:49.402Z,10.90
2024-05-09T07:12:23.076Z,9.80
2024-05-09T07:14:55.825Z,8.40
2024-05-09T07:17:28.290Z,10.40
2024-05-09T07:20:01.678Z,7.70
2024-05-09T07:22:35.563Z,10.70
2024-05-09T07:25:08.590Z,8.30
2024-05-09T07:27:41.102Z,9.90
2024-05-09T07:30:22.840Z,10.60
2024-05-09T07:33:04.671Z,11.30
2024-05-09T07:35:37.660Z,10.80
2024-05-09T07:38:11.091Z,10.00
2024-05-09T07:40:43.556Z,7.60
2024-05-09T07:43:16.481Z,10.40
2024-05-09T07:45:53.641Z,8.90
2024-05-09T07:50:00.959Z,9.10
2024-05-09T07:53:58.458Z,9.20
2024-05-09T07:56:36.716Z,8.50
2024-05-09T07:59:09.687Z,9.60
2024-05-09T08:01:42.511Z,8.40
2024-05-09T08:04:15.140Z,9.70
2024-05-09T08:06:47.891Z,8.90
2024-05-09T08:09:21.423Z,8.80
2024-05-09T08:11:54.847Z,9.40
2024-05-09T08:14:27.472Z,8.40
2024-05-09T08:17:03.414Z,10.90
2024-05-09T08:19:38.261Z,6.30
2024-05-09T08:22:10.872Z,7.40
2024-05-09T08:24:43.690Z,6.20
2024-05-09T08:27:16.233Z,6.30
2024-05-09T08:29:48.963Z,7.70
2024-05-09T08:32:21.968Z,8.30
2024-05-09T08:34:54.507Z,7.30
2024-05-09T08:37:32.847Z,6.90
2024-05-09T08:40:23.462Z,7.00
2024-05-09T08:43:11.909Z,6.30
2024-05-09T08:45:47.086Z,6.80
2024-05-09T08:48:21.049Z,7.00
2024-05-09T08:50:56.505Z,7.40
2024-05-09T08:53:33.043Z,9.40
2024-05-09T08:56:07.437Z,10.60
2024-05-09T08:58:40.189Z,7.20
2024-05-09T09:01:13.061Z,9.40
2024-05-09T09:03:46.681Z,5.90
2024-05-09T09:06:22.021Z,6.40
2024-05-09T09:08:55.077Z,7.10
2024-05-09T09:11:28.461Z,6.70
2024-05-09T09:14:01.508Z,7.80
2024-05-09T09:16:37.892Z,7.40
2024-05-09T09:19:10.673Z,7.90
2024-05-09T09:21:43.615Z,6.70
2024-05-09T09:24:16.576Z,6.40
2024-05-09T09:26:51.286Z,6.80
2024-05-09T09:29:25.747Z,9.20
2024-05-09T09:32:05.552Z,7.60
2024-05-09T09:34:38.782Z,6.30
2024-05-09T09:37:12.835Z,8.20
2024-05-09T09:39:48.895Z,5.80
2024-05-09T09:42:23.910Z,7.30
2024-05-09T09:45:04.287Z,8.70
2024-05-09T09:47:40.149Z,7.00
2024-05-09T09:50:17.193Z,7.50
2024-05-09T09:52:57.491Z,10.20
2024-05-09T09:55:32.026Z,6.70
2024-05-09T09:58:09.639Z,7.80
2024-05-09T10:00:44.941Z,7.90
2024-05-09T10:03:18.081Z,6.30
2024-05-09T10:05:51.086Z,6.40
2024-05-09T10:08:26.002Z,7.70
2024-05-09T10:10:58.924Z,13.40
2024-05-09T10:13:37.800Z,6.90
2024-05-09T10:16:15.045Z,6.50
2024-05-09T10:18:48.478Z,6.40
2024-05-09T10:21:22.889Z,6.90
2024-05-09T10:24:04.088Z,6.60
2024-05-09T10:26:38.958Z,7.20
2024-05-09T10:29:16.766Z,5.90
2024-05-09T10:31:50.232Z,5.90
2024-05-09T10:34:24.427Z,6.60
2024-05-09T10:36:58.895Z,6.20
2024-05-09T10:39:39.246Z,7.60
2024-05-09T10:42:14.338Z,6.50
2024-05-09T10:44:47.415Z,5.70
2024-05-09T10:47:20.683Z,7.50
2024-05-09T10:49:54.460Z,7.50
2024-05-09T10:52:27.595Z,6.70
2024-05-09T10:55:05.442Z,5.70
2024-05-09T10:57:43.688Z,9.40
2024-05-09T11:00:27.017Z,6.60
2024-05-09T11:03:03.594Z,8.30
2024-05-09T11:05:36.934Z,7.40
2024-05-09T11:08:10.689Z,6.20
2024-05-09T11:10:45.176Z,6.90
2024-05-09T11:13:27.159Z,7.20
2024-05-09T11:16:02.537Z,6.70
2024-05-09T11:18:38.848Z,7.90
2024-05-09T11:21:15.946Z,7.70
2024-05-09T11:23:49.599Z,7.90
2024-05-09T11:26:25.566Z,6.90
2024-05-09T11:28:58.507Z,7.70
2024-05-09T11:31:32.015Z,7.40
2024-05-09T11:34:05.922Z,7.90
2024-05-09T11:36:40.013Z,7.10
2024-05-09T11:39:14.971Z,6.30
2024-05-09T11:41:48.187Z,6.40
2024-05-09T11:44:21.355Z,7.00
2024-05-09T11:46:54.431Z,6.50
2024-05-09T11:49:32.477Z,8.60
2024-05-09T11:52:09.531Z,8.90
2024-05-09T11:54:42.774Z,6.90
2024-05-09T11:57:15.313Z,7.00
2024-05-09T11:59:48.192Z,7.10
2024-05-09T12:02:21.402Z,6.20
2024-05-09T12:04:54.690Z,6.60
2024-05-09T12:07:27.815Z,10.10
2024-05-09T12:10:07.864Z,5.90
2024-05-09T12:12:42.523Z,7.30
2024-05-09T12:15:15.710Z,8.90
2024-05-09T12:17:50.947Z,8.50
2024-05-09T12:20:32.375Z,7.20
2024-05-09T12:23:10.842Z,8.00
2024-05-09T12:25:44.351Z,7.30
2024-05-09T12:28:19.683Z,6.60
2024-05-09T12:30:52.781Z,7.10
2024-05-09T12:33:26.873Z,10.00
2024-05-09T12:36:02.233Z,8.20
2024-05-09T12:38:35.516Z,6.70
2024-05-09T12:41:10.519Z,6.00
2024-05-09T12:43:43.590Z,6.50
2024-05-09T12:46:20.474Z,6.50
2024-05-09T12:48:54.423Z,8.40
2024-05-09T12:51:27.611Z,7.80
2024-05-09T12:54:03.488Z,9.40
2024-05-09T12:56:36.210Z,7.00
2024-05-09T12:59:09.443Z,7.60
2024-05-09T13:01:42.754Z,7.00
2024-05-09T13:04:15.968Z,11.00
2024-05-09T13:06:49.533Z,7.40
2024-05-09T13:09:22.400Z,7.90
2024-05-09T13:11:55.209Z,7.30
2024-05-09T13:14:28.354Z,6.50
2024-05-09T13:17:04.439Z,6.80
2024-05-09T13:19:37.531Z,6.60
2024-05-09T13:22:10.618Z,12.50
2024-05-09T13:24:43.634Z,7.90
2024-05-09T13:27:58.771Z,6.10
2024-05-09T13:30:39.562Z,6.40
2024-05-09T13:33:15.910Z,7.00
2024-05-09T13:35:50.935Z,7.00
2024-05-09T13:38:24.614Z,6.50
2024-05-09T13:40:57.754Z,7.40
2024-05-09T13:43:34.643Z,7.90
2024-05-09T13:46:08.072Z,6.60
2024-05-09T13:48:40.945Z,8.00
2024-05-09T13:51:14.186Z,7.50
2024-05-09T13:53:46.988Z,9.90
2024-05-09T13:56:19.695Z,6.80
2024-05-09T13:58:52.546Z,5.90
2024-05-09T14:01:26.343Z,7.90
2024-05-09T14:03:59.065Z,6.90
2024-05-09T14:06:34.905Z,7.80
2024-05-09T14:09:09.839Z,6.70
2024-05-09T14:11:42.709Z,7.90
2024-05-09T14:14:15.631Z,7.80
2024-05-09T14:16:48.420Z,5.80
2024-05-09T14:19:22.849Z,5.80
2024-05-09T14:21:56.486Z,6.20
2024-05-09T14:24:29.470Z,5.90
2024-05-09T14:27:03.118Z,8.00
2024-05-09T14:29:36.731Z,6.10
2024-05-09T14:32:10.207Z,6.80
2024-05-09T14:34:43.359Z,6.10
2024-05-09T14:37:16.667Z,5.90
2024-05-09T14:39:50.226Z,6.40
2024-05-09T14:42:23.071Z,6.80
2024-05-09T14:44:56.636Z,6.70
2024-05-09T14:47:30.085Z,7.10
2024-05-09T14:50:06.741Z,6.10
2024-05-09T14:52:40.005Z,8.20
2024-05-09T14:55:13.389Z,7.70
2024-05-09T14:57:46.494Z,7.90
2024-05-09T15:00:26.328Z,6.40
2024-05-09T15:03:06.899Z,6.00
2024-05-09T15:05:40.107Z,7.10
2024-05-09T15:08:13.215Z,7.30
2024-05-09T15:10:47.312Z,6.00
2024-05-09T15:13:22.027Z,6.50
2024-05-09T15:15:56.202Z,6.40
2024-05-09T15:18:30.446Z,7.90
2024-05-09T15:21:06.287Z,8.50
2024-05-09T15:23:39.331Z,5.90
2024-05-09T15:26:12.523Z,5.80
2024-05-09T15:28:47.341Z,6.60
2024-05-09T15:31:20.531Z,6.30
2024-05-09T15:33:53.445Z,7.50
2024-05-09T15:36:31.223Z,6.00
2024-05-09T15:39:06.611Z,6.40
2024-05-09T15:41:40.228Z,7.00
2024-05-09T15:44:14.006Z,6.50
2024-05-09T15:46:47.067Z,8.50
2024-05-09T15:49:20.263Z,9.00
2024-05-09T15:51:53.577Z,7.60
2024-05-09T15:54:27.758Z,5.20
2024-05-09T15:57:05.056Z,6.10
2024-05-09T15:59:38.153Z,6.90
2024-05-09T16:02:11.860Z,5.90
2024-05-09T16:04:45.061Z,5.80
2024-05-09T16:07:20.012Z,6.20
2024-05-09T16:09:53.508Z,7.70
2024-05-09T16:12:26.666Z,6.50
2024-05-09T16:15:00.736Z,6.70
2024-05-09T16:17:34.332Z,5.80
2024-05-09T16:20:14.856Z,6.20
2024-05-09T16:22:51.629Z,7.10
2024-05-09T16:25:27.971Z,7.20
2024-05-09T16:28:09.932Z,8.60
2024-05-09T16:30:47.035Z,7.10
2024-05-09T16:33:23.933Z,8.00
2024-05-09T16:36:02.296Z,6.70
2024-05-09T16:38:37.018Z,7.80
2024-05-09T16:41:10.914Z,7.30
2024-05-09T16:43:43.990Z,7.50
2024-05-09T16:46:17.447Z,5.60
2024-05-09T16:48:52.563Z,8.10
2024-05-09T16:51:27.167Z,8.30
2024-05-09T16:54:02.402Z,9.00
2024-05-09T16:56:36.032Z,6.90
2024-05-09T16:59:11.863Z,7.70
2024-05-09T17:01:45.283Z,6.80
2024-05-09T17:04:19.347Z,9.40
2024-05-09T17:06:55.087Z,6.30
2024-05-09T17:09:28.854Z,8.70
2024-05-09T17:12:05.672Z,6.10
2024-05-09T17:14:39.283Z,8.10
2024-05-09T17:17:13.445Z,6.00
2024-05-09T17:19:49.585Z,4.30
2024-05-09T17:22:22.345Z,5.40
2024-05-09T17:24:55.558Z,6.40
2024-05-09T17:27:32.270Z,6.80
2024-05-09T17:30:24.053Z,8.20
2024-05-09T17:33:03.643Z,8.30
2024-05-09T17:35:38.853Z,5.70
2024-05-09T17:38:12.383Z,6.10
2024-05-09T17:40:46.226Z,7.20
2024-05-09T17:43:19.946Z,7.10
2024-05-09T17:45:53.641Z,6.30
2024-05-09T17:48:26.601Z,6.60
2024-05-09T17:51:02.187Z,7.60
2024-05-09T17:53:35.483Z,7.40
2024-05-09T17:56:09.489Z,8.10
2024-05-09T17:58:42.402Z,7.30
2024-05-09T18:01:15.488Z,8.40
2024-05-09T18:03:50.272Z,8.60
2024-05-09T18:06:23.335Z,7.90
2024-05-09T18:08:56.138Z,7.70
2024-05-09T18:11:31.787Z,7.40
2024-05-09T18:14:06.891Z,7.00
2024-05-09T18:16:39.668Z,16.50
2024-05-09T18:19:13.181Z,9.60
2024-05-09T18:21:46.346Z,9.70
2024-05-09T18:24:22.112Z,10.10
2024-05-09T18:26:54.950Z,8.40
2024-05-09T18:29:27.668Z,7.10
2024-05-09T18:32:02.697Z,7.50
2024-05-09T18:34:37.133Z,8.70
2024-05-09T18:37:10.581Z,5.70
2024-05-09T18:39:43.667Z,7.00
2024-05-09T18:42:17.523Z,9.60
2024-05-09T18:44:50.914Z,8.90
2024-05-09T18:47:24.088Z,11.30
2024-05-09T18:49:57.088Z,8.80
2024-05-09T18:52:32.346Z,7.60
2024-05-09T18:55:09.232Z,8.70
2024-05-09T18:57:42.424Z,8.20
2024-05-09T19:00:30.740Z,7.40
2024-05-09T19:03:11.350Z,9.60
2024-05-09T19:05:47.340Z,6.50
2024-05-09T19:08:20.703Z,7.30
2024-05-09T19:10:54.305Z,7.80
2024-05-09T19:13:27.500Z,9.60
2024-05-09T19:16:06.379Z,10.50
2024-05-09T19:18:40.923Z,6.80
2024-05-09T19:21:15.433Z,10.90
2024-05-09T19:23:52.296Z,9.50
2024-05-09T19:26:26.332Z,7.90
2024-05-09T19:29:00.174Z,10.20
2024-05-09T19:31:38.778Z,11.70
2024-05-09T19:34:12.032Z,10.60
2024-05-09T19:36:45.164Z,11.10
2024-05-09T19:39:21.908Z,11.10
2024-05-09T19:42:03.443Z,8.40
2024-05-09T19:44:38.643Z,12.40
2024-05-09T19:47:14.065Z,11.40
2024-05-09T19:49:50.114Z,10.10
2024-05-09T19:52:30.767Z,10.50
2024-05-09T19:55:06.221Z,16.90
2024-05-09T19:57:40.068Z,7.80
2024-05-09T20:00:21.524Z,10.10
2024-05-09T20:02:56.510Z,10.80
2024-05-09T20:05:32.257Z,10.20
2024-05-09T20:08:10.392Z,9.80
2024-05-09T20:10:43.936Z,10.70
2024-05-09T20:13:17.679Z,14.20
2024-05-09T20:15:50.745Z,8.90
2024-05-09T20:18:23.657Z,8.00
2024-05-09T20:20:57.286Z,12.40
2024-05-09T20:23:33.088Z,10.00
2024-05-09T20:26:06.661Z,8.70
2024-05-09T20:28:39.744Z,9.20
2024-05-09T20:31:12.752Z,9.20
2024-05-09T20:33:45.775Z,9.60
2024-05-09T20:36:18.575Z,8.90
2024-05-09T20:38:51.302Z,11.00
2024-05-09T20:41:24.117Z,9.60
2024-05-09T20:44:01.204Z,8.00
2024-05-09T20:46:34.467Z,10.30
2024-05-09T20:49:07.704Z,12.20
2024-05-09T20:51:40.538Z,12.20
2024-05-09T20:54:13.813Z,11.00
2024-05-09T20:56:46.449Z,9.50
2024-05-09T20:59:25.827Z,9.70
2024-05-09T21:01:58.855Z,14.00
2024-05-09T21:04:35.111Z,12.30
2024-05-09T21:07:08.114Z,10.80
2024-05-09T21:09:40.954Z,11.30
2024-05-09T21:12:15.000Z,9.20
2024-05-09T21:14:47.903Z,8.40
2024-05-09T21:17:20.844Z,11.10
2024-05-09T21:19:54.245Z,8.80
2024-05-09T21:22:27.546Z,11.50
2024-05-09T21:25:01.291Z,10.30
2024-05-09T21:27:39.402Z,8.20
2024-05-09T21:30:18.763Z,14.40
2024-05-09T21:33:05.161Z,12.60
2024-05-09T21:35:38.331Z,9.50
2024-05-09T21:38:11.500Z,10.20
2024-05-09T21:40:45.426Z,12.80
2024-05-09T21:43:18.861Z,10.90
2024-05-09T21:45:54.054Z,12.70
2024-05-09T21:48:27.905Z,10.00
2024-05-09T21:51:03.816Z,12.80
2024-05-09T21:53:37.884Z,11.80
2024-05-09T21:56:11.714Z,12.90
2024-05-09T21:58:44.538Z,9.70
2024-05-09T22:01:17.756Z,10.20
2024-05-09T22:03:50.649Z,12.60
2024-05-09T22:06:23.228Z,10.80
2024-05-09T22:08:55.965Z,12.70
2024-05-09T22:11:28.962Z,10.00
2024-05-09T22:14:04.511Z,10.00
2024-05-09T22:16:40.852Z,12.20
2024-05-09T22:19:13.706Z,11.60
2024-05-09T22:21:46.362Z,13.50
2024-05-09T22:24:19.070Z,10.00
2024-05-09T22:26:53.643Z,10.30
2024-05-09T22:29:26.416Z,10.00
2024-05-09T22:31:59.149Z,11.90
2024-05-09T22:34:35.386Z,9.00
2024-05-09T22:37:09.192Z,10.60
2024-05-09T22:39:42.623Z,8.90
2024-05-09T22:42:15.312Z,10.50
2024-05-09T22:44:48.067Z,12.20
2024-05-09T22:47:21.018Z,11.90
2024-05-09T22:49:55.124Z,10.80
2024-05-09T22:52:27.843Z,10.50
2024-05-09T22:55:05.035Z,10.00
2024-05-09T22:57:37.933Z,9.30
2024-05-09T23:00:15.847Z,10.70
2024-05-09T23:02:48.999Z,10.90
2024-05-09T23:05:21.997Z,9.30
2024-05-09T23:07:55.016Z,12.20
2024-05-09T23:10:35.059Z,11.00
2024-05-09T23:13:10.056Z,10.70
2024-05-09T23:15:42.716Z,11.40
2024-05-09T23:18:15.847Z,12.00
2024-05-09T23:20:48.488Z,12.20
2024-05-09T23:23:21.557Z,12.10
2024-05-09T23:25:54.140Z,9.10
2024-05-09T23:28:26.996Z,10.80
2024-05-09T23:31:02.473Z,9.50
2024-05-09T23:33:38.626Z,9.40
2024-05-09T23:36:11.778Z,11.90
2024-05-09T23:38:44.740Z,11.90
2024-05-09T23:41:17.490Z,11.70
2024-05-09T23:43:50.235Z,12.70
2024-05-09T23:46:23.062Z,12.50
2024-05-09T23:48:55.840Z,11.60
2024-05-09T23:51:28.515Z,11.00
2024-05-09T23:54:07.897Z,11.70
2024-05-09T23:56:40.437Z,11.70
2024-05-09T23:59:13.151Z,12.90
